Terminal Aerodrome Forecast
Issued by NWS Shreveport, LA

Home | Current Version | Previous Version | Text Only | Print | Product List | Glossary On
Versions: 1 2 3 4 5 6 7 8 9 10 11 12 13 14 15 16 17
251
FTUS44 KSHV 010529
TAFTYR
TAF
KTYR 010529Z 0106/0206 27009KT P6SM SKC
     FM011600 24010G16KT P6SM SKC
     FM011900 24011G20KT P6SM SKC
     FM020000 23006KT P6SM SCT060=

USA.gov is the U.S. government's official web portal to all federal, state and local government web resources and services.